createdAt,value
2022-09-06T00:01:09.196Z,6.70
2022-09-06T00:03:36.871Z,7.90
2022-09-06T00:06:13.002Z,9.30
2022-09-06T00:08:41.013Z,8.38
2022-09-06T00:11:08.410Z,6.80
2022-09-06T00:13:36.473Z,6.82
2022-09-06T00:16:13.341Z,8.30
2022-09-06T00:18:41.160Z,6.68
2022-09-06T00:21:20.350Z,9.38
2022-09-06T00:23:47.941Z,8.50
2022-09-06T00:26:15.743Z,10.15
2022-09-06T00:28:43.308Z,10.02
2022-09-06T00:31:22.539Z,15.60
2022-09-06T00:33:50.334Z,14.60
2022-09-06T00:36:18.157Z,11.57
2022-09-06T00:38:45.599Z,14.40
2022-09-06T00:41:15.283Z,9.43
2022-09-06T00:43:42.914Z,7.28
2022-09-06T00:46:17.224Z,6.75
2022-09-06T00:51:13.391Z,5.82
2022-09-06T00:53:41.635Z,8.18
2022-09-06T00:56:09.547Z,8.80
2022-09-06T00:58:37.249Z,9.13
2022-09-06T01:01:05.335Z,9.48
2022-09-06T01:03:33.074Z,9.07
2022-09-06T01:06:15.683Z,13.93
2022-09-06T01:09:27.910Z,7.72
2022-09-06T01:12:16.925Z,6.57
2022-09-06T01:15:11.235Z,7.80
2022-09-06T01:17:38.520Z,7.00
2022-09-06T01:20:21.174Z,9.95
2022-09-06T01:23:04.785Z,8.18
2022-09-06T01:26:12.854Z,6.85
2022-09-06T01:28:43.918Z,7.50
2022-09-06T01:31:25.767Z,8.05
2022-09-06T01:34:05.646Z,8.85
2022-09-06T01:36:45.812Z,8.90
2022-09-06T01:39:28.024Z,7.75
2022-09-06T01:41:56.751Z,8.27
2022-09-06T01:44:25.579Z,16.27
2022-09-06T01:47:00.070Z,8.10
2022-09-06T01:52:18.291Z,7.85
2022-09-06T01:54:56.959Z,9.23
2022-09-06T01:57:49.175Z,6.15
2022-09-06T02:00:22.579Z,6.25
2022-09-06T02:03:21.485Z,9.77
2022-09-06T02:05:51.765Z,7.93
2022-09-06T02:08:24.029Z,6.65
2022-09-06T02:11:01.036Z,7.97
2022-09-06T02:13:40.500Z,7.22
2022-09-06T02:16:08.767Z,6.47
2022-09-06T02:18:48.254Z,7.68
2022-09-06T02:21:17.074Z,8.48
2022-09-06T02:23:45.048Z,8.77
2022-09-06T02:26:24.682Z,8.85
2022-09-06T02:28:52.392Z,6.62
2022-09-06T02:31:22.157Z,7.47
2022-09-06T02:33:50.692Z,7.28
2022-09-06T02:36:18.809Z,8.45
2022-09-06T02:38:46.424Z,10.60
2022-09-06T02:41:24.209Z,6.90
2022-09-06T02:43:51.899Z,5.93
2022-09-06T02:46:19.549Z,7.15
2022-09-06T02:48:47.011Z,6.15
2022-09-06T02:51:14.712Z,6.78
2022-09-06T02:53:42.311Z,11.68
2022-09-06T02:56:10.008Z,14.18
2022-09-06T02:58:37.821Z,9.80
2022-09-06T03:01:05.880Z,5.40
2022-09-06T03:03:33.779Z,6.55
2022-09-06T03:06:01.593Z,5.75
2022-09-06T03:08:33.505Z,7.35
2022-09-06T03:11:02.684Z,9.20
2022-09-06T03:13:30.311Z,8.90
2022-09-06T03:15:59.591Z,8.23
2022-09-06T03:18:29.174Z,8.15
2022-09-06T03:20:57.158Z,9.48
2022-09-06T03:23:26.395Z,8.00
2022-09-06T03:25:54.631Z,6.75
2022-09-06T03:28:22.658Z,6.10
2022-09-06T03:30:51.747Z,9.02
2022-09-06T03:33:20.410Z,8.10
2022-09-06T03:35:55.561Z,7.75
2022-09-06T03:38:23.821Z,7.35
2022-09-06T03:40:52.846Z,6.43
2022-09-06T03:43:21.654Z,6.90
2022-09-06T03:45:52.238Z,6.97
2022-09-06T03:48:20.988Z,7.18
2022-09-06T03:50:50.489Z,7.22
2022-09-06T03:53:18.574Z,8.95
2022-09-06T03:55:50.592Z,7.68
2022-09-06T03:58:19.977Z,8.20
2022-09-06T04:00:47.895Z,9.93
2022-09-06T04:03:15.597Z,9.05
2022-09-06T04:05:46.579Z,10.23
2022-09-06T04:08:14.054Z,15.75
2022-09-06T04:10:41.811Z,25.58
2022-09-06T04:13:09.273Z,7.45
2022-09-06T04:15:37.265Z,7.80
2022-09-06T04:18:08.620Z,8.80
2022-09-06T04:20:36.619Z,9.57
2022-09-06T04:23:04.156Z,9.50
2022-09-06T04:25:31.863Z,12.35
2022-09-06T04:27:59.340Z,8.20
2022-09-06T04:30:26.736Z,10.57
2022-09-06T04:32:54.434Z,7.93
2022-09-06T04:35:21.810Z,9.18
2022-09-06T04:37:49.214Z,6.47
2022-09-06T04:40:17.083Z,7.93
2022-09-06T04:42:44.463Z,8.27
2022-09-06T04:45:12.170Z,9.43
2022-09-06T04:47:39.851Z,10.70
2022-09-06T04:50:07.746Z,9.65
2022-09-06T04:52:35.162Z,8.70
2022-09-06T04:55:03.152Z,12.00
2022-09-06T04:57:30.986Z,8.85
2022-09-06T04:59:58.368Z,9.32
2022-09-06T05:02:26.052Z,11.45
2022-09-06T05:04:54.884Z,8.07
2022-09-06T05:07:22.281Z,8.80
2022-09-06T05:09:49.970Z,8.52
2022-09-06T05:12:17.576Z,9.60
2022-09-06T05:14:44.994Z,8.68
2022-09-06T05:17:15.225Z,8.30
2022-09-06T05:19:43.180Z,9.52
2022-09-06T05:22:11.978Z,8.95
2022-09-06T05:24:39.825Z,13.98
2022-09-06T05:27:07.673Z,9.88
2022-09-06T05:29:35.233Z,10.23
2022-09-06T05:32:03.165Z,8.68
2022-09-06T05:34:30.683Z,10.50
2022-09-06T05:36:58.075Z,11.77
2022-09-06T05:39:25.725Z,8.80
2022-09-06T05:41:53.173Z,7.95
2022-09-06T05:44:20.595Z,9.10
2022-09-06T05:46:48.265Z,7.50
2022-09-06T05:49:15.768Z,7.85
2022-09-06T05:51:43.204Z,8.13
2022-09-06T05:54:11.745Z,8.70
2022-09-06T05:56:39.403Z,5.62
2022-09-06T05:59:06.771Z,6.85
2022-09-06T06:01:34.267Z,8.45
2022-09-06T06:04:04.648Z,10.93
2022-09-06T06:06:33.464Z,5.40
2022-09-06T06:09:00.982Z,8.82
2022-09-06T06:11:28.713Z,6.43
2022-09-06T06:13:56.132Z,5.22
2022-09-06T06:16:23.649Z,5.12
2022-09-06T06:18:52.767Z,5.37
2022-09-06T06:21:28.586Z,6.15
2022-09-06T06:24:06.402Z,6.70
2022-09-06T06:26:35.770Z,5.47
2022-09-06T06:29:05.707Z,6.35
2022-09-06T06:31:33.806Z,5.00
2022-09-06T06:34:03.760Z,7.50
2022-09-06T06:36:33.930Z,9.02
2022-09-06T06:39:02.441Z,7.40
2022-09-06T06:41:31.879Z,6.55
2022-09-06T06:44:01.362Z,10.05
2022-09-06T06:46:31.357Z,6.05
2022-09-06T06:48:58.782Z,6.28
2022-09-06T06:51:28.596Z,6.93
2022-09-06T06:54:00.000Z,8.23
2022-09-06T06:56:28.669Z,6.97
2022-09-06T06:58:58.259Z,6.90
2022-09-06T07:01:27.430Z,5.75
2022-09-06T07:03:55.567Z,8.25
2022-09-06T07:09:11.719Z,5.62
2022-09-06T07:11:39.113Z,6.93
2022-09-06T07:14:06.493Z,6.32
2022-09-06T07:16:34.191Z,8.05
2022-09-06T07:19:01.669Z,9.88
2022-09-06T07:24:06.548Z,6.15
2022-09-06T07:26:36.622Z,7.32
2022-09-06T07:29:05.413Z,6.90
2022-09-06T07:34:20.995Z,7.22
2022-09-06T07:36:48.680Z,5.80
2022-09-06T07:39:16.109Z,8.93
2022-09-06T07:41:43.743Z,7.10
2022-09-06T07:44:11.195Z,5.72
2022-09-06T07:46:38.948Z,7.87
2022-09-06T07:49:06.840Z,5.95
2022-09-06T07:51:34.285Z,7.37
2022-09-06T07:54:26.289Z,7.40
2022-09-06T07:56:49.801Z,7.55
2022-09-06T07:59:17.252Z,6.30
2022-09-06T08:01:44.737Z,9.18
2022-09-06T08:04:14.063Z,9.55
2022-09-06T08:09:31.303Z,6.45
2022-09-06T08:11:58.901Z,8.60
2022-09-06T08:14:26.319Z,8.65
2022-09-06T08:16:53.977Z,7.78
2022-09-06T08:19:21.375Z,11.10
2022-09-06T08:21:49.709Z,7.05
2022-09-06T08:24:17.361Z,7.22
2022-09-06T08:26:44.811Z,7.07
2022-09-06T08:29:13.120Z,7.85
2022-09-06T08:31:43.293Z,7.18
2022-09-06T08:34:12.773Z,8.95
2022-09-06T08:36:40.745Z,6.15
2022-09-06T08:39:09.982Z,6.85
2022-09-06T08:41:56.948Z,5.43
2022-09-06T08:44:56.004Z,8.63
2022-09-06T08:47:24.681Z,8.52
2022-09-06T08:50:04.258Z,8.50
2022-09-06T08:52:49.765Z,6.37
2022-09-06T08:55:30.820Z,7.30
2022-09-06T08:58:35.829Z,6.78
2022-09-06T09:03:38.159Z,6.68
2022-09-06T09:06:07.459Z,7.18
2022-09-06T09:09:08.013Z,5.70
2022-09-06T09:11:36.368Z,7.40
2022-09-06T09:14:17.430Z,6.28
2022-09-06T09:16:45.179Z,8.65
2022-09-06T09:19:13.567Z,5.37
2022-09-06T09:21:41.013Z,7.95
2022-09-06T09:24:10.446Z,8.75
2022-09-06T09:26:51.220Z,7.37
2022-09-06T09:29:22.755Z,6.22
2022-09-06T09:31:54.669Z,9.90
2022-09-06T09:34:39.879Z,7.35
2022-09-06T09:40:24.285Z,6.65
2022-09-06T09:42:52.870Z,8.48
2022-09-06T09:45:23.275Z,8.25
2022-09-06T09:47:50.663Z,7.97
2022-09-06T09:50:30.327Z,6.35
2022-09-06T09:53:08.172Z,6.62
2022-09-06T09:55:35.887Z,7.50
2022-09-06T09:58:04.046Z,5.30
2022-09-06T10:00:34.114Z,6.30
2022-09-06T10:03:12.490Z,9.07
2022-09-06T10:05:40.409Z,7.80
2022-09-06T10:08:12.629Z,7.62
2022-09-06T10:10:43.048Z,7.28
2022-09-06T10:13:19.366Z,6.78
2022-09-06T10:15:47.503Z,8.77
2022-09-06T10:18:34.807Z,10.90
2022-09-06T10:21:14.700Z,8.85
2022-09-06T10:26:38.447Z,7.35
2022-09-06T10:29:09.654Z,6.00
2022-09-06T10:31:39.835Z,6.22
2022-09-06T10:34:16.818Z,7.60
2022-09-06T10:37:14.340Z,6.07
2022-09-06T10:39:48.408Z,8.68
2022-09-06T10:42:34.534Z,7.55
2022-09-06T10:45:20.689Z,10.05
2022-09-06T10:47:57.272Z,5.97
2022-09-06T10:50:36.412Z,9.23
2022-09-06T10:53:09.364Z,8.80
2022-09-06T10:55:40.341Z,5.93
2022-09-06T10:58:19.261Z,5.18
2022-09-06T11:00:49.575Z,7.18
2022-09-06T11:06:11.511Z,5.50
2022-09-06T11:08:58.291Z,3.60
2022-09-06T11:11:49.405Z,3.97
2022-09-06T11:14:18.036Z,4.85
2022-09-06T11:16:49.665Z,3.95
2022-09-06T11:19:24.029Z,6.40
2022-09-06T11:22:10.318Z,3.55
2022-09-06T11:25:12.539Z,3.85
2022-09-06T11:27:42.595Z,6.50
2022-09-06T11:30:14.905Z,4.40
2022-09-06T11:32:49.744Z,5.72
2022-09-06T11:35:37.385Z,5.32
2022-09-06T11:38:14.147Z,6.93
2022-09-06T11:40:44.590Z,5.35
2022-09-06T11:43:14.243Z,6.05
2022-09-06T11:45:53.021Z,5.62
2022-09-06T11:48:23.585Z,4.07
2022-09-06T11:50:54.026Z,5.82
2022-09-06T11:53:23.079Z,6.20
2022-09-06T11:56:05.166Z,5.43
2022-09-06T11:58:53.982Z,5.95
2022-09-06T12:01:21.269Z,4.32
2022-09-06T12:04:05.864Z,5.50
2022-09-06T12:06:43.782Z,3.37
2022-09-06T12:09:46.893Z,6.00
2022-09-06T12:12:48.143Z,4.78
2022-09-06T12:15:26.062Z,3.95
2022-09-06T12:17:53.885Z,5.37
2022-09-06T12:20:51.306Z,4.62
2022-09-06T12:23:37.095Z,5.22
2022-09-06T12:26:09.187Z,6.53
2022-09-06T12:28:52.740Z,5.40
2022-09-06T12:31:26.412Z,6.03
2022-09-06T12:33:54.932Z,3.15
2022-09-06T12:36:29.825Z,4.40
2022-09-06T12:38:58.663Z,5.43
2022-09-06T12:41:28.548Z,6.07
2022-09-06T12:43:56.320Z,4.43
2022-09-06T12:46:25.650Z,4.57
2022-09-06T12:49:06.767Z,4.53
2022-09-06T12:51:35.139Z,4.85
2022-09-06T12:54:05.993Z,4.97
2022-09-06T12:56:37.321Z,6.57
2022-09-06T12:59:32.427Z,4.30
2022-09-06T13:04:39.901Z,4.87
2022-09-06T13:07:09.945Z,5.35
2022-09-06T13:09:38.206Z,7.07
2022-09-06T13:12:10.734Z,4.80
2022-09-06T13:14:38.503Z,4.62
2022-09-06T13:17:05.950Z,3.70
2022-09-06T13:19:38.437Z,4.62
2022-09-06T13:22:11.182Z,3.95
2022-09-06T13:24:47.687Z,5.37
2022-09-06T13:27:30.739Z,3.58
2022-09-06T13:30:09.187Z,4.65
2022-09-06T13:32:45.871Z,4.97
2022-09-06T13:35:23.923Z,5.93
2022-09-06T13:37:51.772Z,6.97
2022-09-06T13:41:07.107Z,5.62
2022-09-06T13:43:33.443Z,4.55
2022-09-06T13:46:06.367Z,5.90
2022-09-06T13:48:34.655Z,5.85
2022-09-06T13:51:06.903Z,4.07
2022-09-06T13:53:34.893Z,4.32
2022-09-06T13:56:03.121Z,4.90
2022-09-06T13:58:30.816Z,5.70
2022-09-06T14:00:58.635Z,8.32
2022-09-06T14:03:31.665Z,4.70
2022-09-06T14:06:00.307Z,5.70
2022-09-06T14:08:38.854Z,6.55
2022-09-06T14:11:16.256Z,6.90
2022-09-06T14:13:44.269Z,9.52
2022-09-06T14:16:12.634Z,8.55
2022-09-06T14:18:40.523Z,5.20
2022-09-06T14:21:08.214Z,4.87
2022-09-06T14:23:35.605Z,4.90
2022-09-06T14:26:04.499Z,5.97
2022-09-06T14:28:33.843Z,4.65
2022-09-06T14:31:15.803Z,4.95
2022-09-06T14:33:43.621Z,7.35
2022-09-06T14:36:13.223Z,6.22
2022-09-06T14:38:41.850Z,5.00
2022-09-06T14:41:09.858Z,6.43
2022-09-06T14:43:37.820Z,4.40
2022-09-06T14:46:07.522Z,6.93
2022-09-06T14:48:38.128Z,7.28
2022-09-06T14:51:19.211Z,6.53
2022-09-06T14:53:47.227Z,5.85
2022-09-06T14:56:15.266Z,7.95
2022-09-06T14:58:43.467Z,5.93
2022-09-06T15:01:22.317Z,6.75
2022-09-06T15:03:52.065Z,6.47
2022-09-06T15:06:21.312Z,5.03
2022-09-06T15:08:49.740Z,11.35
2022-09-06T15:11:36.659Z,7.40
2022-09-06T15:14:08.029Z,7.87
2022-09-06T15:16:36.221Z,10.65
2022-09-06T15:19:04.144Z,11.32
2022-09-06T15:21:32.435Z,15.40
2022-09-06T15:24:01.879Z,12.02
2022-09-06T15:26:30.062Z,13.98
2022-09-06T15:28:57.431Z,10.77
2022-09-06T15:31:25.246Z,10.13
2022-09-06T15:33:53.037Z,10.30
2022-09-06T15:36:21.890Z,9.00
2022-09-06T15:38:50.199Z,12.80
2022-09-06T15:41:20.154Z,12.82
2022-09-06T15:43:49.168Z,8.73
2022-09-06T15:46:21.292Z,7.50
2022-09-06T15:48:50.825Z,10.55
2022-09-06T15:51:19.988Z,10.80
2022-09-06T15:53:47.810Z,8.00
2022-09-06T15:56:16.703Z,7.90
2022-09-06T15:58:47.749Z,8.48
2022-09-06T16:01:20.619Z,8.70
2022-09-06T16:03:50.529Z,9.52
2022-09-06T16:06:26.253Z,9.57
2022-09-06T16:09:09.378Z,8.00
2022-09-06T16:11:37.134Z,9.68
2022-09-06T16:14:06.831Z,11.30
2022-09-06T16:16:35.269Z,12.02
2022-09-06T16:19:03.376Z,9.45
2022-09-06T16:21:32.442Z,9.18
2022-09-06T16:24:01.860Z,8.23
2022-09-06T16:26:34.858Z,10.70
2022-09-06T16:29:04.218Z,9.15
2022-09-06T16:31:36.366Z,8.23
2022-09-06T16:34:07.846Z,15.95
2022-09-06T16:36:35.412Z,9.10
2022-09-06T16:39:04.090Z,8.00
2022-09-06T16:41:40.574Z,6.87
2022-09-06T16:44:09.095Z,10.68
2022-09-06T16:46:36.967Z,9.10
2022-09-06T16:49:04.654Z,6.62
2022-09-06T16:51:32.171Z,10.85
2022-09-06T16:54:00.175Z,7.75
2022-09-06T16:56:33.326Z,9.88
2022-09-06T16:59:04.558Z,9.40
2022-09-06T17:01:33.149Z,9.43
2022-09-06T17:04:04.375Z,10.73
2022-09-06T17:06:33.205Z,10.68
2022-09-06T17:09:01.092Z,11.10
2022-09-06T17:11:29.226Z,11.00
2022-09-06T17:13:57.789Z,10.68
2022-09-06T17:16:44.640Z,9.30
2022-09-06T17:19:12.871Z,11.18
2022-09-06T17:21:40.859Z,8.35
2022-09-06T17:24:08.939Z,9.85
2022-09-06T17:26:38.024Z,10.50
2022-09-06T17:29:06.552Z,10.95
2022-09-06T17:31:35.966Z,22.08
2022-09-06T17:34:04.081Z,8.85
2022-09-06T17:36:33.407Z,9.07
2022-09-06T17:39:03.743Z,9.68
2022-09-06T17:41:42.883Z,13.52
2022-09-06T17:44:12.985Z,10.18
2022-09-06T17:46:57.097Z,9.60
2022-09-06T17:49:30.301Z,12.48
2022-09-06T17:51:58.507Z,10.57
2022-09-06T17:54:26.185Z,11.95
2022-09-06T17:56:54.108Z,14.15
2022-09-06T17:59:21.811Z,11.15
2022-09-06T18:01:49.499Z,10.50
2022-09-06T18:04:17.881Z,11.43
2022-09-06T18:06:47.027Z,10.85
2022-09-06T18:09:17.533Z,12.05
2022-09-06T18:11:48.533Z,11.57
2022-09-06T18:14:18.489Z,8.77
2022-09-06T18:16:49.299Z,14.38
2022-09-06T18:19:18.176Z,12.30
2022-09-06T18:21:47.082Z,11.98
2022-09-06T18:24:15.549Z,10.80
2022-09-06T18:26:43.453Z,14.13
2022-09-06T18:29:13.484Z,10.02
2022-09-06T18:31:41.911Z,9.35
2022-09-06T18:34:10.441Z,12.30
2022-09-06T18:36:38.955Z,11.02
2022-09-06T18:39:06.686Z,10.95
2022-09-06T18:41:53.390Z,10.23
2022-09-06T18:44:21.908Z,10.10
2022-09-06T18:46:50.303Z,9.20
2022-09-06T18:49:18.753Z,9.32
2022-09-06T18:51:47.098Z,12.30
2022-09-06T18:54:14.999Z,8.95
2022-09-06T18:56:45.117Z,10.40
2022-09-06T18:59:14.181Z,13.32
2022-09-06T19:01:43.390Z,9.93
2022-09-06T19:04:11.982Z,10.55
2022-09-06T19:06:41.551Z,8.68
2022-09-06T19:09:13.283Z,9.60
2022-09-06T19:11:45.964Z,9.68
2022-09-06T19:14:14.059Z,12.75
2022-09-06T19:16:42.559Z,8.45
2022-09-06T19:19:12.037Z,11.18
2022-09-06T19:21:42.323Z,10.18
2022-09-06T19:24:12.439Z,11.25
2022-09-06T19:26:42.058Z,10.43
2022-09-06T19:29:15.502Z,10.15
2022-09-06T19:31:44.429Z,8.63
2022-09-06T19:34:13.964Z,9.32
2022-09-06T19:36:42.043Z,11.35
2022-09-06T19:39:12.541Z,9.75
2022-09-06T19:41:43.017Z,12.77
2022-09-06T19:44:11.782Z,10.93
2022-09-06T19:46:45.760Z,13.18
2022-09-06T19:49:19.509Z,9.10
2022-09-06T19:51:49.203Z,12.30
2022-09-06T19:54:17.942Z,9.88
2022-09-06T19:56:46.395Z,11.60
2022-09-06T19:59:14.981Z,10.98
2022-09-06T20:01:44.747Z,9.35
2022-09-06T20:04:14.362Z,12.77
2022-09-06T20:06:42.318Z,9.75
2022-09-06T20:09:10.754Z,10.65
2022-09-06T20:11:41.622Z,10.75
2022-09-06T20:14:12.592Z,10.95
2022-09-06T20:16:42.307Z,10.75
2022-09-06T20:19:12.348Z,10.25
2022-09-06T20:21:40.598Z,9.32
2022-09-06T20:24:08.915Z,11.10
2022-09-06T20:26:36.646Z,12.50
2022-09-06T20:29:05.360Z,10.40
2022-09-06T20:31:33.923Z,9.77
2022-09-06T20:34:02.806Z,9.85
2022-09-06T20:36:31.156Z,9.80
2022-09-06T20:38:59.044Z,10.50
2022-09-06T20:41:27.283Z,13.55
2022-09-06T20:43:56.697Z,11.70
2022-09-06T20:46:30.456Z,10.93
2022-09-06T20:49:00.137Z,10.57
2022-09-06T20:51:28.057Z,10.70
2022-09-06T20:54:00.855Z,13.32
2022-09-06T20:56:34.537Z,10.17
2022-09-06T20:59:05.862Z,10.70
2022-09-06T21:01:37.050Z,10.90
2022-09-06T21:04:06.692Z,11.82
2022-09-06T21:06:36.689Z,13.30
2022-09-06T21:09:08.897Z,11.77
2022-09-06T21:11:36.714Z,14.05
2022-09-06T21:14:04.821Z,11.75
2022-09-06T21:16:32.632Z,10.25
2022-09-06T21:19:05.464Z,11.48
2022-09-06T21:21:34.552Z,10.88
2022-09-06T21:24:03.942Z,12.23
2022-09-06T21:26:31.640Z,10.15
2022-09-06T21:28:59.460Z,10.23
2022-09-06T21:31:32.336Z,13.00
2022-09-06T21:34:03.295Z,9.25
2022-09-06T21:36:33.980Z,11.23
2022-09-06T21:39:04.821Z,11.50
2022-09-06T21:41:35.041Z,10.65
2022-09-06T21:44:03.442Z,11.75
2022-09-06T21:46:33.940Z,11.40
2022-09-06T21:49:12.943Z,14.10
2022-09-06T21:51:40.899Z,12.05
2022-09-06T21:54:09.140Z,10.43
2022-09-06T21:56:38.217Z,14.18
2022-09-06T21:59:06.304Z,14.87
2022-09-06T22:01:35.669Z,14.27
2022-09-06T22:04:04.327Z,13.15
2022-09-06T22:06:33.418Z,14.32
2022-09-06T22:09:05.258Z,13.13
2022-09-06T22:11:34.081Z,10.68
2022-09-06T22:14:03.997Z,11.85
2022-09-06T22:16:33.853Z,10.93
2022-09-06T22:19:01.879Z,11.50
2022-09-06T22:21:29.333Z,11.15
2022-09-06T22:23:58.660Z,12.65
2022-09-06T22:26:28.403Z,10.73
2022-09-06T22:29:00.287Z,11.07
2022-09-06T22:31:29.797Z,21.58
2022-09-06T22:33:57.519Z,12.05
2022-09-06T22:36:26.141Z,14.18
2022-09-06T22:38:57.578Z,12.70
2022-09-06T22:41:27.109Z,14.70
2022-09-06T22:43:55.021Z,12.63
2022-09-06T22:46:23.085Z,12.75
2022-09-06T22:48:50.627Z,15.45
2022-09-06T22:51:18.467Z,12.13
2022-09-06T22:53:45.875Z,15.52
2022-09-06T22:56:13.306Z,13.75
2022-09-06T22:58:40.990Z,13.15
2022-09-06T23:01:10.508Z,11.80
2022-09-06T23:03:38.471Z,11.85
2022-09-06T23:06:06.374Z,12.95
2022-09-06T23:08:35.383Z,12.52
2022-09-06T23:11:08.403Z,11.38
2022-09-06T23:13:36.204Z,10.95
2022-09-06T23:16:05.928Z,11.35
2022-09-06T23:18:33.917Z,11.77
2022-09-06T23:21:06.485Z,13.02
2022-09-06T23:23:34.936Z,12.07
2022-09-06T23:26:08.147Z,10.23
2022-09-06T23:28:36.200Z,11.27
2022-09-06T23:31:05.534Z,10.32
2022-09-06T23:33:37.385Z,10.20
2022-09-06T23:36:06.420Z,9.77
2022-09-06T23:38:35.123Z,11.90
2022-09-06T23:41:02.977Z,10.02
2022-09-06T23:43:31.159Z,14.65
2022-09-06T23:45:58.836Z,12.10
2022-09-06T23:48:26.304Z,12.90
2022-09-06T23:50:54.165Z,11.00
2022-09-06T23:53:21.616Z,12.90
2022-09-06T23:55:49.025Z,16.27
2022-09-06T23:58:16.691Z,14.35
